sensor_id;sensor_type;location;lat;lon;timestamp;pressure;altitude;pressure_sealevel;temperature;humidity
68077;BME280;54866;53.458;14.540;2023-06-22T00:13:20;101025.06;;;16.91;92.62
68077;BME280;54866;53.458;14.540;2023-06-22T00:15:48;101025.79;;;16.86;92.87
68077;BME280;54866;53.458;14.540;2023-06-22T00:18:16;101023.19;;;16.83;92.88
68077;BME280;54866;53.458;14.540;2023-06-22T00:20:44;101023.90;;;16.79;92.86
68077;BME280;54866;53.458;14.540;2023-06-22T00:23:12;101022.54;;;16.76;92.98
68077;BME280;54866;53.458;14.540;2023-06-22T00:25:41;101021.43;;;16.71;93.14
68077;BME280;54866;53.458;14.540;2023-06-22T00:28:09;101027.56;;;16.66;93.36
68077;BME280;54866;53.458;14.540;2023-06-22T00:30:37;101027.40;;;16.62;93.54
68077;BME280;54866;53.458;14.540;2023-06-22T00:33:05;101026.42;;;16.57;93.58
68077;BME280;54866;53.458;14.540;2023-06-22T00:35:34;101026.43;;;16.54;93.66
68077;BME280;54866;53.458;14.540;2023-06-22T00:38:02;101028.82;;;16.49;93.86
68077;BME280;54866;53.458;14.540;2023-06-22T00:40:32;101038.70;;;16.46;93.92
68077;BME280;54866;53.458;14.540;2023-06-22T00:43:01;101038.02;;;16.42;94.27
68077;BME280;54866;53.458;14.540;2023-06-22T00:45:29;101040.83;;;16.39;94.58
68077;BME280;54866;53.458;14.540;2023-06-22T00:48:02;101036.95;;;16.35;94.80
68077;BME280;54866;53.458;14.540;2023-06-22T00:50:32;101037.64;;;16.32;94.96
68077;BME280;54866;53.458;14.540;2023-06-22T00:53:02;101041.17;;;16.30;95.09
68077;BME280;54866;53.458;14.540;2023-06-22T00:55:34;101046.85;;;16.28;95.24
68077;BME280;54866;53.458;14.540;2023-06-22T00:58:05;101048.24;;;16.27;95.41
68077;BME280;54866;53.458;14.540;2023-06-22T01:00:36;101052.21;;;16.24;95.38
68077;BME280;54866;53.458;14.540;2023-06-22T01:03:04;101060.21;;;16.21;95.61
68077;BME280;54866;53.458;14.540;2023-06-22T01:05:35;101063.88;;;16.18;95.75
68077;BME280;54866;53.458;14.540;2023-06-22T01:08:12;101062.77;;;16.17;95.83
68077;BME280;54866;53.458;14.540;2023-06-22T01:10:44;101063.10;;;16.15;95.89
68077;BME280;54866;53.458;14.540;2023-06-22T01:13:21;101061.08;;;16.12;96.19
68077;BME280;54866;53.458;14.540;2023-06-22T01:15:53;101069.71;;;16.09;96.32
68077;BME280;54866;53.458;14.540;2023-06-22T01:18:23;101072.27;;;16.07;96.52
68077;BME280;54866;53.458;14.540;2023-06-22T01:20:53;101071.09;;;16.02;96.65
68077;BME280;54866;53.458;14.540;2023-06-22T01:23:25;101071.53;;;15.99;96.86
68077;BME280;54866;53.458;14.540;2023-06-22T01:25:57;101074.89;;;15.97;97.01
68077;BME280;54866;53.458;14.540;2023-06-22T01:28:39;101068.93;;;15.95;97.11
68077;BME280;54866;53.458;14.540;2023-06-22T01:31:09;101073.59;;;15.93;97.18
68077;BME280;54866;53.458;14.540;2023-06-22T01:33:39;101071.83;;;15.91;97.74
68077;BME280;54866;53.458;14.540;2023-06-22T01:36:08;101065.79;;;15.87;98.01
68077;BME280;54866;53.458;14.540;2023-06-22T01:38:37;101066.77;;;15.82;98.21
68077;BME280;54866;53.458;14.540;2023-06-22T01:41:06;101070.98;;;15.77;98.43
68077;BME280;54866;53.458;14.540;2023-06-22T01:43:34;101077.00;;;15.74;98.62
68077;BME280;54866;53.458;14.540;2023-06-22T01:46:03;101084.48;;;15.70;98.74
68077;BME280;54866;53.458;14.540;2023-06-22T01:48:33;101084.83;;;15.66;98.97
68077;BME280;54866;53.458;14.540;2023-06-22T01:51:01;101087.27;;;15.62;99.17
68077;BME280;54866;53.458;14.540;2023-06-22T01:53:31;101084.17;;;15.59;99.36
68077;BME280;54866;53.458;14.540;2023-06-22T01:55:59;101091.16;;;15.57;99.57
68077;BME280;54866;53.458;14.540;2023-06-22T01:58:28;101096.94;;;15.55;99.66
68077;BME280;54866;53.458;14.540;2023-06-22T02:00:58;101096.87;;;15.53;99.77
68077;BME280;54866;53.458;14.540;2023-06-22T02:03:31;101098.92;;;15.50;99.84
68077;BME280;54866;53.458;14.540;2023-06-22T02:06:03;101101.82;;;15.47;100.00
68077;BME280;54866;53.458;14.540;2023-06-22T02:08:35;101102.23;;;15.45;100.00
68077;BME280;54866;53.458;14.540;2023-06-22T02:11:04;101104.74;;;15.44;100.00
68077;BME280;54866;53.458;14.540;2023-06-22T02:13:34;101104.34;;;15.43;100.00
68077;BME280;54866;53.458;14.540;2023-06-22T02:16:02;101109.28;;;15.41;100.00
68077;BME280;54866;53.458;14.540;2023-06-22T02:18:31;101108.86;;;15.40;100.00
68077;BME280;54866;53.458;14.540;2023-06-22T02:21:02;101107.77;;;15.38;100.00
68077;BME280;54866;53.458;14.540;2023-06-22T02:23:30;101108.73;;;15.36;100.00
68077;BME280;54866;53.458;14.540;2023-06-22T02:25:59;101110.73;;;15.33;100.00
68077;BME280;54866;53.458;14.540;2023-06-22T02:28:27;101107.00;;;15.31;100.00
68077;BME280;54866;53.458;14.540;2023-06-22T02:30:56;101108.10;;;15.31;100.00
68077;BME280;54866;53.458;14.540;2023-06-22T02:33:23;101108.22;;;15.30;100.00
68077;BME280;54866;53.458;14.540;2023-06-22T02:35:52;101108.83;;;15.29;100.00
68077;BME280;54866;53.458;14.540;2023-06-22T02:38:20;101110.52;;;15.28;100.00
68077;BME280;54866;53.458;14.540;2023-06-22T02:40:50;101114.77;;;15.26;100.00
68077;BME280;54866;53.458;14.540;2023-06-22T02:43:18;101116.86;;;15.24;100.00
68077;BME280;54866;53.458;14.540;2023-06-22T02:45:46;101117.91;;;15.22;100.00
68077;BME280;54866;53.458;14.540;2023-06-22T02:48:14;101118.52;;;15.20;100.00
68077;BME280;54866;53.458;14.540;2023-06-22T02:50:42;101119.52;;;15.19;100.00
68077;BME280;54866;53.458;14.540;2023-06-22T02:53:09;101120.34;;;15.17;100.00
68077;BME280;54866;53.458;14.540;2023-06-22T02:55:37;101122.69;;;15.17;100.00
68077;BME280;54866;53.458;14.540;2023-06-22T02:58:06;101119.80;;;15.17;100.00
68077;BME280;54866;53.458;14.540;2023-06-22T03:00:35;101116.77;;;15.18;100.00
68077;BME280;54866;53.458;14.540;2023-06-22T03:03:03;101114.95;;;15.18;100.00
68077;BME280;54866;53.458;14.540;2023-06-22T03:05:31;101117.70;;;15.19;100.00
68077;BME280;54866;53.458;14.540;2023-06-22T03:07:59;101117.61;;;15.20;100.00
68077;BME280;54866;53.458;14.540;2023-06-22T03:10:27;101125.35;;;15.21;100.00
68077;BME280;54866;53.458;14.540;2023-06-22T03:12:57;101125.84;;;15.23;100.00
68077;BME280;54866;53.458;14.540;2023-06-22T03:15:25;101121.62;;;15.23;100.00
68077;BME280;54866;53.458;14.540;2023-06-22T03:17:56;101128.59;;;15.26;100.00
68077;BME280;54866;53.458;14.540;2023-06-22T03:20:24;101129.77;;;15.27;100.00
68077;BME280;54866;53.458;14.540;2023-06-22T03:22:53;101127.89;;;15.30;100.00
68077;BME280;54866;53.458;14.540;2023-06-22T03:25:21;101131.39;;;15.34;100.00
68077;BME280;54866;53.458;14.540;2023-06-22T03:27:49;101137.38;;;15.39;100.00
68077;BME280;54866;53.458;14.540;2023-06-22T03:30:17;101137.27;;;15.44;100.00
68077;BME280;54866;53.458;14.540;2023-06-22T03:32:46;101139.95;;;15.50;100.00
68077;BME280;54866;53.458;14.540;2023-06-22T03:35:14;101145.39;;;15.56;100.00
68077;BME280;54866;53.458;14.540;2023-06-22T03:37:42;101144.31;;;15.62;100.00
68077;BME280;54866;53.458;14.540;2023-06-22T03:40:11;101142.46;;;15.65;100.00
68077;BME280;54866;53.458;14.540;2023-06-22T03:42:39;101149.27;;;15.66;100.00
68077;BME280;54866;53.458;14.540;2023-06-22T03:45:09;101149.47;;;15.70;100.00
68077;BME280;54866;53.458;14.540;2023-06-22T03:47:37;101153.86;;;15.74;100.00
68077;BME280;54866;53.458;14.540;2023-06-22T03:50:06;101150.71;;;15.78;100.00
68077;BME280;54866;53.458;14.540;2023-06-22T03:52:35;101148.98;;;15.83;100.00
68077;BME280;54866;53.458;14.540;2023-06-22T03:55:03;101150.38;;;15.87;100.00
68077;BME280;54866;53.458;14.540;2023-06-22T03:57:33;101159.09;;;15.89;100.00
68077;BME280;54866;53.458;14.540;2023-06-22T04:00:01;101163.41;;;15.88;100.00
68077;BME280;54866;53.458;14.540;2023-06-22T04:02:32;101162.88;;;15.88;100.00
68077;BME280;54866;53.458;14.540;2023-06-22T04:05:00;101159.67;;;15.90;100.00
68077;BME280;54866;53.458;14.540;2023-06-22T04:07:28;101157.52;;;15.95;100.00
68077;BME280;54866;53.458;14.540;2023-06-22T04:09:56;101152.17;;;16.02;100.00
68077;BME280;54866;53.458;14.540;2023-06-22T04:12:24;101151.20;;;16.12;100.00
68077;BME280;54866;53.458;14.540;2023-06-22T04:14:52;101144.67;;;16.23;100.00
68077;BME280;54866;53.458;14.540;2023-06-22T04:17:20;101144.95;;;16.33;100.00
68077;BME280;54866;53.458;14.540;2023-06-22T04:19:48;101151.67;;;16.43;100.00
68077;BME280;54866;53.458;14.540;2023-06-22T04:22:16;101155.02;;;16.56;100.00
68077;BME280;54866;53.458;14.540;2023-06-22T04:24:44;101160.49;;;16.70;100.00
68077;BME280;54866;53.458;14.540;2023-06-22T04:27:12;101165.55;;;16.81;99.92
68077;BME280;54866;53.458;14.540;2023-06-22T04:29:40;101161.00;;;16.95;99.51
68077;BME280;54866;53.458;14.540;2023-06-22T04:32:16;101163.14;;;17.11;98.95
68077;BME280;54866;53.458;14.540;2023-06-22T04:34:43;101161.11;;;17.27;98.41
68077;BME280;54866;53.458;14.540;2023-06-22T04:37:12;101154.48;;;17.41;97.56
68077;BME280;54866;53.458;14.540;2023-06-22T04:39:42;101155.55;;;17.54;96.97
68077;BME280;54866;53.458;14.540;2023-06-22T04:42:11;101153.11;;;17.67;96.49
68077;BME280;54866;53.458;14.540;2023-06-22T04:44:39;101152.16;;;17.79;95.38
68077;BME280;54866;53.458;14.540;2023-06-22T04:47:08;101144.59;;;17.90;94.92
68077;BME280;54866;53.458;14.540;2023-06-22T04:49:36;101139.89;;;18.03;94.31
68077;BME280;54866;53.458;14.540;2023-06-22T04:52:07;101135.46;;;18.16;93.75
68077;BME280;54866;53.458;14.540;2023-06-22T04:54:37;101130.79;;;18.29;93.11
68077;BME280;54866;53.458;14.540;2023-06-22T04:57:06;101122.77;;;18.44;92.89
68077;BME280;54866;53.458;14.540;2023-06-22T04:59:37;101127.31;;;18.64;92.34
68077;BME280;54866;53.458;14.540;2023-06-22T05:02:06;101130.72;;;18.84;91.67
68077;BME280;54866;53.458;14.540;2023-06-22T05:04:34;101135.27;;;19.07;91.05
68077;BME280;54866;53.458;14.540;2023-06-22T05:07:05;101129.89;;;19.23;90.05
68077;BME280;54866;53.458;14.540;2023-06-22T05:09:33;101132.33;;;19.40;89.44
68077;BME280;54866;53.458;14.540;2023-06-22T05:12:02;101130.44;;;19.54;88.87
68077;BME280;54866;53.458;14.540;2023-06-22T05:14:31;101130.79;;;19.71;88.53
68077;BME280;54866;53.458;14.540;2023-06-22T05:17:00;101123.04;;;19.84;87.99
68077;BME280;54866;53.458;14.540;2023-06-22T05:19:30;101130.55;;;20.03;87.17
68077;BME280;54866;53.458;14.540;2023-06-22T05:22:00;101130.54;;;20.23;86.13
68077;BME280;54866;53.458;14.540;2023-06-22T05:24:28;101122.74;;;20.41;85.53
68077;BME280;54866;53.458;14.540;2023-06-22T05:26:55;101124.34;;;20.59;84.70
68077;BME280;54866;53.458;14.540;2023-06-22T05:29:24;101130.93;;;20.78;83.97
68077;BME280;54866;53.458;14.540;2023-06-22T05:31:53;101132.83;;;21.00;83.42
68077;BME280;54866;53.458;14.540;2023-06-22T05:34:21;101124.30;;;21.21;82.34
68077;BME280;54866;53.458;14.540;2023-06-22T05:36:49;101118.48;;;21.42;81.36
68077;BME280;54866;53.458;14.540;2023-06-22T05:39:17;101118.15;;;21.63;80.49
68077;BME280;54866;53.458;14.540;2023-06-22T05:41:46;101118.45;;;21.78;79.36
68077;BME280;54866;53.458;14.540;2023-06-22T05:44:14;101119.29;;;21.95;78.70
68077;BME280;54866;53.458;14.540;2023-06-22T05:46:42;101122.26;;;22.11;77.21
68077;BME280;54866;53.458;14.540;2023-06-22T05:49:11;101124.79;;;22.23;74.41
68077;BME280;54866;53.458;14.540;2023-06-22T05:51:39;101126.21;;;22.33;71.98
68077;BME280;54866;53.458;14.540;2023-06-22T05:54:07;101128.23;;;22.39;71.43
68077;BME280;54866;53.458;14.540;2023-06-22T05:56:35;101131.64;;;22.55;70.27
68077;BME280;54866;53.458;14.540;2023-06-22T05:59:04;101131.64;;;23.09;69.22
68077;BME280;54866;53.458;14.540;2023-06-22T06:01:32;101127.61;;;24.99;65.39
68077;BME280;54866;53.458;14.540;2023-06-22T06:04:02;101122.92;;;27.20;59.64
68077;BME280;54866;53.458;14.540;2023-06-22T06:06:31;101122.20;;;28.87;53.52
68077;BME280;54866;53.458;14.540;2023-06-22T06:08:59;101116.69;;;30.13;49.51
68077;BME280;54866;53.458;14.540;2023-06-22T06:11:26;101119.69;;;31.21;44.26
68077;BME280;54866;53.458;14.540;2023-06-22T06:13:55;101117.16;;;32.10;41.55
68077;BME280;54866;53.458;14.540;2023-06-22T06:16:23;101116.07;;;32.86;40.11
68077;BME280;54866;53.458;14.540;2023-06-22T06:18:51;101113.55;;;33.81;38.13
68077;BME280;54866;53.458;14.540;2023-06-22T06:21:21;101109.89;;;34.58;36.45
68077;BME280;54866;53.458;14.540;2023-06-22T06:23:50;101113.63;;;34.87;33.66
68077;BME280;54866;53.458;14.540;2023-06-22T06:26:19;101117.44;;;34.52;34.05
68077;BME280;54866;53.458;14.540;2023-06-22T06:28:56;101123.38;;;33.96;35.92
68077;BME280;54866;53.458;14.540;2023-06-22T06:31:25;101124.61;;;33.27;36.71
68077;BME280;54866;53.458;14.540;2023-06-22T06:33:54;101132.56;;;32.55;37.63
68077;BME280;54866;53.458;14.540;2023-06-22T06:36:22;101136.58;;;31.79;37.66
68077;BME280;54866;53.458;14.540;2023-06-22T06:38:50;101136.20;;;30.96;38.94
68077;BME280;54866;53.458;14.540;2023-06-22T06:41:18;101137.17;;;30.23;39.85
68077;BME280;54866;53.458;14.540;2023-06-22T06:43:47;101135.55;;;29.54;41.52
68077;BME280;54866;53.458;14.540;2023-06-22T06:46:15;101135.31;;;29.17;42.45
68077;BME280;54866;53.458;14.540;2023-06-22T06:48:45;101138.75;;;28.85;42.09
68077;BME280;54866;53.458;14.540;2023-06-22T06:51:13;101137.69;;;28.55;42.45
68077;BME280;54866;53.458;14.540;2023-06-22T06:53:41;101136.48;;;28.40;42.67
68077;BME280;54866;53.458;14.540;2023-06-22T06:56:09;101134.00;;;28.30;42.85
68077;BME280;54866;53.458;14.540;2023-06-22T06:58:40;101132.92;;;28.22;43.35
68077;BME280;54866;53.458;14.540;2023-06-22T07:01:08;101131.90;;;28.17;43.66
68077;BME280;54866;53.458;14.540;2023-06-22T07:03:36;101137.94;;;28.11;43.26
68077;BME280;54866;53.458;14.540;2023-06-22T07:06:04;101140.88;;;28.04;43.60
68077;BME280;54866;53.458;14.540;2023-06-22T07:08:33;101142.20;;;27.89;43.48
68077;BME280;54866;53.458;14.540;2023-06-22T07:11:01;101144.84;;;27.67;43.42
68077;BME280;54866;53.458;14.540;2023-06-22T07:13:30;101146.28;;;27.33;44.51
68077;BME280;54866;53.458;14.540;2023-06-22T07:15:58;101146.99;;;26.93;44.53
68077;BME280;54866;53.458;14.540;2023-06-22T07:18:26;101146.19;;;26.79;44.74
68077;BME280;54866;53.458;14.540;2023-06-22T07:20:54;101144.17;;;26.85;44.96
68077;BME280;54866;53.458;14.540;2023-06-22T07:23:22;101140.78;;;26.91;44.59
68077;BME280;54866;53.458;14.540;2023-06-22T07:25:50;101136.94;;;26.74;45.35
68077;BME280;54866;53.458;14.540;2023-06-22T07:28:18;101137.73;;;26.75;44.66
68077;BME280;54866;53.458;14.540;2023-06-22T07:30:46;101135.46;;;26.67;43.75
68077;BME280;54866;53.458;14.540;2023-06-22T07:33:14;101138.10;;;26.53;44.06
68077;BME280;54866;53.458;14.540;2023-06-22T07:35:44;101136.23;;;26.43;44.97
68077;BME280;54866;53.458;14.540;2023-06-22T07:38:13;101137.40;;;26.41;44.61
68077;BME280;54866;53.458;14.540;2023-06-22T07:40:42;101141.31;;;26.52;44.76
68077;BME280;54866;53.458;14.540;2023-06-22T07:43:10;101140.45;;;26.70;44.11
68077;BME280;54866;53.458;14.540;2023-06-22T07:45:39;101137.94;;;26.82;42.95
68077;BME280;54866;53.458;14.540;2023-06-22T07:48:08;101132.65;;;26.90;42.27
68077;BME280;54866;53.458;14.540;2023-06-22T07:50:37;101134.98;;;26.88;43.52
68077;BME280;54866;53.458;14.540;2023-06-22T07:53:05;101136.03;;;27.00;43.50
68077;BME280;54866;53.458;14.540;2023-06-22T07:55:33;101133.57;;;27.12;43.22
68077;BME280;54866;53.458;14.540;2023-06-22T07:58:01;101127.59;;;27.11;41.73
68077;BME280;54866;53.458;14.540;2023-06-22T08:00:29;101127.54;;;26.96;41.75
68077;BME280;54866;53.458;14.540;2023-06-22T08:02:57;101122.47;;;26.87;41.31
68077;BME280;54866;53.458;14.540;2023-06-22T08:05:25;101121.53;;;26.83;41.66
68077;BME280;54866;53.458;14.540;2023-06-22T08:07:54;101124.09;;;26.82;41.99
68077;BME280;54866;53.458;14.540;2023-06-22T08:10:23;101119.08;;;26.90;40.84
68077;BME280;54866;53.458;14.540;2023-06-22T08:12:51;101117.38;;;26.82;40.41
68077;BME280;54866;53.458;14.540;2023-06-22T08:15:19;101120.38;;;26.73;41.85
68077;BME280;54866;53.458;14.540;2023-06-22T08:17:48;101121.11;;;26.95;42.08
68077;BME280;54866;53.458;14.540;2023-06-22T08:20:18;101122.11;;;27.20;42.73
68077;BME280;54866;53.458;14.540;2023-06-22T08:22:46;101129.06;;;27.52;41.61
68077;BME280;54866;53.458;14.540;2023-06-22T08:25:15;101124.41;;;27.87;40.57
68077;BME280;54866;53.458;14.540;2023-06-22T08:27:46;101125.27;;;28.23;39.71
68077;BME280;54866;53.458;14.540;2023-06-22T08:30:15;101123.92;;;28.55;39.03
68077;BME280;54866;53.458;14.540;2023-06-22T08:32:43;101120.12;;;28.82;38.57
68077;BME280;54866;53.458;14.540;2023-06-22T08:35:11;101121.86;;;29.14;37.77
68077;BME280;54866;53.458;14.540;2023-06-22T08:37:39;101119.14;;;29.41;36.31
68077;BME280;54866;53.458;14.540;2023-06-22T08:40:09;101117.83;;;29.32;35.52
68077;BME280;54866;53.458;14.540;2023-06-22T08:42:37;101118.98;;;29.23;36.39
68077;BME280;54866;53.458;14.540;2023-06-22T08:45:06;101122.55;;;29.41;36.90
68077;BME280;54866;53.458;14.540;2023-06-22T08:47:34;101122.15;;;29.60;36.77
68077;BME280;54866;53.458;14.540;2023-06-22T08:50:02;101125.41;;;29.73;36.27
68077;BME280;54866;53.458;14.540;2023-06-22T08:52:30;101124.39;;;29.66;35.88
68077;BME280;54866;53.458;14.540;2023-06-22T08:54:58;101126.54;;;29.58;34.98
68077;BME280;54866;53.458;14.540;2023-06-22T08:57:26;101126.91;;;29.38;34.94
68077;BME280;54866;53.458;14.540;2023-06-22T08:59:54;101127.61;;;29.33;36.43
68077;BME280;54866;53.458;14.540;2023-06-22T09:02:25;101128.95;;;29.08;38.78
68077;BME280;54866;53.458;14.540;2023-06-22T09:04:53;101128.45;;;28.55;40.30
68077;BME280;54866;53.458;14.540;2023-06-22T09:07:22;101127.15;;;28.24;41.12
68077;BME280;54866;53.458;14.540;2023-06-22T09:09:51;101127.54;;;27.96;41.54
68077;BME280;54866;53.458;14.540;2023-06-22T09:12:19;101129.28;;;27.77;42.55
68077;BME280;54866;53.458;14.540;2023-06-22T09:14:52;101125.85;;;27.66;41.93
68077;BME280;54866;53.458;14.540;2023-06-22T09:17:21;101126.66;;;27.44;43.00
68077;BME280;54866;53.458;14.540;2023-06-22T09:19:49;101124.88;;;27.44;43.65
68077;BME280;54866;53.458;14.540;2023-06-22T09:22:17;101127.23;;;27.71;43.62
68077;BME280;54866;53.458;14.540;2023-06-22T09:24:45;101124.77;;;28.02;41.17
68077;BME280;54866;53.458;14.540;2023-06-22T09:27:13;101119.50;;;28.28;40.22
68077;BME280;54866;53.458;14.540;2023-06-22T09:29:41;101118.63;;;28.52;38.54
68077;BME280;54866;53.458;14.540;2023-06-22T09:32:09;101120.02;;;28.56;36.33
68077;BME280;54866;53.458;14.540;2023-06-22T09:34:37;101121.25;;;28.49;37.20
68077;BME280;54866;53.458;14.540;2023-06-22T09:37:06;101117.72;;;28.63;37.65
68077;BME280;54866;53.458;14.540;2023-06-22T09:39:35;101111.91;;;28.98;38.14
68077;BME280;54866;53.458;14.540;2023-06-22T09:42:04;101109.30;;;29.31;37.62
68077;BME280;54866;53.458;14.540;2023-06-22T09:44:33;101104.00;;;29.60;36.15
68077;BME280;54866;53.458;14.540;2023-06-22T09:47:01;101101.96;;;29.67;34.83
68077;BME280;54866;53.458;14.540;2023-06-22T09:49:29;101100.92;;;29.63;34.94
68077;BME280;54866;53.458;14.540;2023-06-22T09:51:57;101097.64;;;29.69;35.06
68077;BME280;54866;53.458;14.540;2023-06-22T09:54:25;101099.05;;;29.70;34.80
68077;BME280;54866;53.458;14.540;2023-06-22T09:56:53;101099.02;;;29.74;35.16
68077;BME280;54866;53.458;14.540;2023-06-22T09:59:21;101098.59;;;29.82;34.89
68077;BME280;54866;53.458;14.540;2023-06-22T10:01:50;101097.96;;;29.87;34.23
68077;BME280;54866;53.458;14.540;2023-06-22T10:04:18;101097.93;;;29.93;34.09
68077;BME280;54866;53.458;14.540;2023-06-22T10:06:45;101097.91;;;30.01;33.47
68077;BME280;54866;53.458;14.540;2023-06-22T10:09:14;101096.60;;;30.07;32.68
68077;BME280;54866;53.458;14.540;2023-06-22T10:11:42;101095.11;;;30.03;32.85
68077;BME280;54866;53.458;14.540;2023-06-22T10:14:10;101091.89;;;29.81;32.55
68077;BME280;54866;53.458;14.540;2023-06-22T10:16:38;101092.52;;;29.57;33.29
68077;BME280;54866;53.458;14.540;2023-06-22T10:19:07;101093.37;;;29.54;34.42
68077;BME280;54866;53.458;14.540;2023-06-22T10:21:35;101091.22;;;29.67;34.23
68077;BME280;54866;53.458;14.540;2023-06-22T10:24:04;101093.56;;;29.93;34.80
68077;BME280;54866;53.458;14.540;2023-06-22T10:26:33;101089.38;;;30.12;34.86
68077;BME280;54866;53.458;14.540;2023-06-22T10:29:02;101089.56;;;30.22;34.16
68077;BME280;54866;53.458;14.540;2023-06-22T10:31:30;101092.02;;;30.36;34.36
68077;BME280;54866;53.458;14.540;2023-06-22T10:33:58;101090.41;;;30.50;34.99
68077;BME280;54866;53.458;14.540;2023-06-22T10:36:26;101086.02;;;30.68;34.70
68077;BME280;54866;53.458;14.540;2023-06-22T10:38:54;101087.23;;;30.82;34.44
68077;BME280;54866;53.458;14.540;2023-06-22T10:41:22;101091.15;;;30.98;34.52
68077;BME280;54866;53.458;14.540;2023-06-22T10:43:50;101089.65;;;31.22;33.99
68077;BME280;54866;53.458;14.540;2023-06-22T10:46:18;101085.98;;;31.31;32.47
68077;BME280;54866;53.458;14.540;2023-06-22T10:48:46;101082.88;;;31.28;32.69
68077;BME280;54866;53.458;14.540;2023-06-22T10:51:14;101082.40;;;31.21;32.89
68077;BME280;54866;53.458;14.540;2023-06-22T10:53:42;101083.84;;;31.13;32.61
68077;BME280;54866;53.458;14.540;2023-06-22T10:56:11;101082.02;;;31.12;33.04
68077;BME280;54866;53.458;14.540;2023-06-22T10:58:39;101081.08;;;30.85;32.52
68077;BME280;54866;53.458;14.540;2023-06-22T11:01:07;101075.89;;;30.47;32.88
68077;BME280;54866;53.458;14.540;2023-06-22T11:03:34;101069.20;;;30.42;33.38
68077;BME280;54866;53.458;14.540;2023-06-22T11:06:03;101066.32;;;30.43;33.47
68077;BME280;54866;53.458;14.540;2023-06-22T11:08:31;101066.83;;;30.52;33.74
68077;BME280;54866;53.458;14.540;2023-06-22T11:10:59;101065.69;;;30.76;33.35
68077;BME280;54866;53.458;14.540;2023-06-22T11:13:27;101061.85;;;30.90;32.25
68077;BME280;54866;53.458;14.540;2023-06-22T11:15:55;101066.34;;;30.76;32.64
68077;BME280;54866;53.458;14.540;2023-06-22T11:18:23;101063.27;;;30.91;33.68
68077;BME280;54866;53.458;14.540;2023-06-22T11:20:51;101060.91;;;31.07;32.61
68077;BME280;54866;53.458;14.540;2023-06-22T11:23:19;101059.51;;;31.11;33.43
68077;BME280;54866;53.458;14.540;2023-06-22T11:25:47;101060.73;;;31.10;35.46
68077;BME280;54866;53.458;14.540;2023-06-22T11:28:15;101060.52;;;30.69;36.17
68077;BME280;54866;53.458;14.540;2023-06-22T11:30:43;101058.39;;;30.26;37.31
68077;BME280;54866;53.458;14.540;2023-06-22T11:33:11;101051.85;;;30.02;38.21
68077;BME280;54866;53.458;14.540;2023-06-22T11:35:39;101052.60;;;29.87;38.57
68077;BME280;54866;53.458;14.540;2023-06-22T11:38:07;101051.91;;;29.55;38.71
68077;BME280;54866;53.458;14.540;2023-06-22T11:40:35;101054.44;;;29.14;39.07
68077;BME280;54866;53.458;14.540;2023-06-22T11:43:03;101055.02;;;29.02;39.66
68077;BME280;54866;53.458;14.540;2023-06-22T11:45:32;101047.79;;;29.14;39.78
68077;BME280;54866;53.458;14.540;2023-06-22T11:47:59;101041.59;;;29.20;39.71
68077;BME280;54866;53.458;14.540;2023-06-22T11:50:28;101041.80;;;29.16;39.62
68077;BME280;54866;53.458;14.540;2023-06-22T11:53:00;101044.69;;;28.79;39.84
68077;BME280;54866;53.458;14.540;2023-06-22T11:55:29;101042.56;;;28.48;40.72
68077;BME280;54866;53.458;14.540;2023-06-22T11:57:57;101041.10;;;28.35;41.08
68077;BME280;54866;53.458;14.540;2023-06-22T12:00:29;101033.40;;;28.16;41.04
68077;BME280;54866;53.458;14.540;2023-06-22T12:02:57;101033.31;;;28.12;40.98
68077;BME280;54866;53.458;14.540;2023-06-22T12:05:25;101032.80;;;27.78;41.21
68077;BME280;54866;53.458;14.540;2023-06-22T12:07:54;101033.38;;;27.41;42.28
68077;BME280;54866;53.458;14.540;2023-06-22T12:10:23;101033.93;;;27.50;42.79
68077;BME280;54866;53.458;14.540;2023-06-22T12:12:51;101032.05;;;27.58;42.43
68077;BME280;54866;53.458;14.540;2023-06-22T12:15:19;101029.02;;;27.64;41.35
68077;BME280;54866;53.458;14.540;2023-06-22T12:17:47;101028.52;;;27.64;41.46
68077;BME280;54866;53.458;14.540;2023-06-22T12:20:16;101031.78;;;27.53;41.62
68077;BME280;54866;53.458;14.540;2023-06-22T12:22:43;101033.47;;;27.32;41.84
68077;BME280;54866;53.458;14.540;2023-06-22T12:25:12;101029.59;;;27.12;42.61
68077;BME280;54866;53.458;14.540;2023-06-22T12:27:40;101026.37;;;27.16;42.51
68077;BME280;54866;53.458;14.540;2023-06-22T12:30:09;101027.16;;;27.32;42.34
68077;BME280;54866;53.458;14.540;2023-06-22T12:32:37;101025.30;;;27.64;42.21
68077;BME280;54866;53.458;14.540;2023-06-22T12:35:05;101017.71;;;28.02;40.58
68077;BME280;54866;53.458;14.540;2023-06-22T12:37:38;101020.95;;;28.27;39.63
68077;BME280;54866;53.458;14.540;2023-06-22T12:40:07;101020.65;;;28.42;40.25
68077;BME280;54866;53.458;14.540;2023-06-22T12:42:36;101017.91;;;28.65;38.54
68077;BME280;54866;53.458;14.540;2023-06-22T12:45:04;101018.11;;;28.66;38.46
68077;BME280;54866;53.458;14.540;2023-06-22T12:47:32;101024.31;;;28.64;38.83
68077;BME280;54866;53.458;14.540;2023-06-22T12:50:00;101021.46;;;28.65;39.01
68077;BME280;54866;53.458;14.540;2023-06-22T12:52:29;101023.71;;;28.68;38.21
68077;BME280;54866;53.458;14.540;2023-06-22T12:54:57;101027.27;;;28.62;38.34
68077;BME280;54866;53.458;14.540;2023-06-22T12:57:25;101027.76;;;28.47;38.59